»·PEaware :: FFT796 KPDX-KDEN

FFT796 :: KPDX-KDEN

FLIGHT INFORMATION

Flight Status: Arrived
Operator:
Frontier Airlines
More flights by this operator :: More flights under this callsign
Pilot: Cody S. (29806)
Aircraft: AIRBUS A320
(A320)
More flights by this aircraft type
Origin: KPDX Portland Intl
United States
Destination: KDEN Denver Intl
United States
More flights between these airports :: More routes between these airports
Route: WHAMY4 IMB J15 BOI OCS MJANE FLATI1
File this flight plan on PilotEdge
Remarks:
Altitude:
(Current/Filed)
35,000ft
Speed:
(Current/Filed)
450kts
Departed: 30-May-20 09:15 PM
Arrived: 30-May-20 11:36 PM
Distance/Time
Traveled:
859nm/2:21
Distance/Time
To Go:
Arrived

Flight Plot

Page will automatically refresh every two minutes.

Flight plan parsing failed; only flown route is shown


Map Options




Map Legend


Flown Route
Filed Route
Departure Airport
Arrival Airport
Navaid (VOR, NDB)
Fix

Horizontal Profiles

Position Reports

Time Latitude Longitude Heading Altitude Ground
Speed
30-May-20 20:39 45.590656 -122.595506 54 38ft 0kts
30-May-20 20:40 45.590656 -122.595506 54 38ft 0kts
30-May-20 20:41 45.590656 -122.595506 54 38ft 0kts
30-May-20 20:42 45.590656 -122.595506 54 38ft 0kts
30-May-20 20:43 45.590656 -122.595506 54 38ft 0kts
30-May-20 20:44 45.590656 -122.595506 54 38ft 0kts
30-May-20 20:45 45.590656 -122.595506 54 38ft 0kts
30-May-20 20:46 45.590656 -122.595506 54 38ft 0kts
30-May-20 20:47 45.590656 -122.595506 54 38ft 0kts
30-May-20 20:48 45.590656 -122.595506 54 38ft 0kts
30-May-20 20:49 45.590657 -122.595507 55 38ft 0kts
30-May-20 20:50 45.590657 -122.595507 55 38ft 0kts
30-May-20 20:51 45.590657 -122.595507 55 38ft 0kts
30-May-20 20:52 45.590657 -122.595507 55 38ft 0kts
30-May-20 20:52 45.590657 -122.595507 55 38ft 0kts
30-May-20 20:54 45.590657 -122.595507 55 38ft 0kts
30-May-20 20:55 45.590657 -122.595507 55 38ft 0kts
30-May-20 20:55 45.590657 -122.595507 55 38ft 0kts
30-May-20 20:57 45.590657 -122.595507 55 38ft 0kts
30-May-20 20:57 45.590657 -122.595507 55 38ft 0kts
30-May-20 20:58 45.590657 -122.595507 55 38ft 0kts
30-May-20 20:59 45.590657 -122.595507 55 38ft 0kts
30-May-20 21:00 45.590657 -122.595507 55 38ft 0kts
30-May-20 21:01 45.590657 -122.595507 55 38ft 0kts
30-May-20 21:02 45.590657 -122.595507 55 38ft 0kts
30-May-20 21:03 45.590577 -122.595676 55 38ft 2kts
30-May-20 21:04 45.590512 -122.595812 55 38ft 2kts
30-May-20 21:05 45.590090 -122.595919 302 38ft 0kts
30-May-20 21:06 45.590057 -122.595824 297 38ft 0kts
30-May-20 21:07 45.590249 -122.596393 293 38ft 3kts
30-May-20 21:08 45.590251 -122.596401 293 38ft 0kts
30-May-20 21:09 45.590319 -122.596615 294 38ft 17kts
30-May-20 21:10 45.591042 -122.598525 304 38ft 0kts
30-May-20 21:11 45.593820 -122.598509 44 38ft 15kts
30-May-20 21:12 45.594173 -122.598014 43 38ft 0kts
30-May-20 21:13 45.594280 -122.597862 44 38ft 0kts
30-May-20 21:14 45.594703 -122.595648 114 38ft 44kts
30-May-20 21:15 45.574885 -122.536419 99 1594ft 210kts
30-May-20 21:16 45.560291 -122.438775 102 2344ft 267kts
30-May-20 21:17 45.541733 -122.335937 117 5567ft 280kts
30-May-20 21:18 45.480942 -122.266307 139 9581ft 290kts
30-May-20 21:19 45.416243 -122.183860 142 11974ft 346kts
30-May-20 21:20 45.347715 -122.096770 142 14645ft 363kts
30-May-20 21:21 45.271550 -122.000324 142 17197ft 379kts
30-May-20 21:22 45.223492 -121.859290 115 19413ft 414kts
30-May-20 21:23 45.183910 -121.704156 115 21485ft 426kts
30-May-20 21:24 45.142688 -121.544584 115 23376ft 438kts
30-May-20 21:25 45.100210 -121.381352 115 25106ft 448kts
30-May-20 21:26 45.058550 -121.222515 115 26612ft 456kts
30-May-20 21:27 45.014108 -121.054113 115 27996ft 464kts
30-May-20 21:28 44.968396 -120.882166 116 29244ft 473kts
30-May-20 21:29 44.922139 -120.709365 116 30684ft 472kts
30-May-20 21:30 44.877246 -120.542674 116 32193ft 469kts
30-May-20 21:31 44.831466 -120.374038 115 33665ft 464kts
30-May-20 21:32 44.786898 -120.210773 117 34861ft 461kts
30-May-20 21:33 44.740745 -120.043601 117 34932ft 459kts
30-May-20 21:34 44.694746 -119.877714 116 34940ft 462kts
30-May-20 21:35 44.648019 -119.710222 118 34947ft 462kts
30-May-20 21:36 44.603340 -119.556068 117 34977ft 405kts
30-May-20 21:37 44.561954 -119.415412 117 34940ft 396kts
30-May-20 21:38 44.520438 -119.274775 118 34939ft 399kts
30-May-20 21:39 44.477908 -119.131261 118 34943ft 399kts
30-May-20 21:40 44.435197 -118.987939 119 34938ft 399kts
30-May-20 21:41 44.392597 -118.845792 119 34923ft 399kts
30-May-20 21:42 44.349550 -118.702949 120 34937ft 399kts
30-May-20 21:43 44.306491 -118.560866 120 34950ft 398kts
30-May-20 21:44 44.263197 -118.418814 120 34952ft 397kts
30-May-20 21:45 44.220468 -118.279374 121 34951ft 395kts
30-May-20 21:46 44.177597 -118.140237 122 34946ft 394kts
30-May-20 21:47 44.134259 -118.000354 122 34867ft 393kts
30-May-20 21:48 44.090662 -117.860361 122 34727ft 392kts
30-May-20 21:49 44.047236 -117.721689 122 34700ft 393kts
30-May-20 21:50 44.003267 -117.582028 122 34711ft 395kts
30-May-20 21:51 43.959493 -117.443690 122 34733ft 395kts
30-May-20 21:52 43.915535 -117.305515 122 34732ft 396kts
30-May-20 21:53 43.871248 -117.167067 122 34729ft 398kts
30-May-20 21:54 43.826117 -117.026688 122 34773ft 399kts
30-May-20 21:55 43.780573 -116.885756 122 34790ft 400kts
30-May-20 21:56 43.735352 -116.746545 122 34767ft 400kts
30-May-20 21:57 43.689520 -116.606320 122 34752ft 401kts
30-May-20 21:58 43.643379 -116.465825 122 34747ft 402kts
30-May-20 21:59 43.597460 -116.326722 123 34757ft 403kts
30-May-20 22:00 43.552198 -116.184631 116 34775ft 411kts
30-May-20 22:01 43.524518 -116.031526 112 34803ft 416kts
30-May-20 22:02 43.496997 -115.876555 112 34807ft 417kts
30-May-20 22:03 43.469257 -115.721711 112 34812ft 417kts
30-May-20 22:04 43.441237 -115.566624 112 34813ft 417kts
30-May-20 22:05 43.413150 -115.412524 112 34827ft 416kts
30-May-20 22:06 43.385454 -115.261596 113 34825ft 416kts
30-May-20 22:07 43.356878 -115.107356 113 34870ft 416kts
30-May-20 22:08 43.328045 -114.952934 112 34960ft 416kts
30-May-20 22:09 43.299131 -114.799288 112 34948ft 415kts
30-May-20 22:10 43.270028 -114.645911 112 34937ft 415kts
30-May-20 22:11 43.240919 -114.493777 112 34938ft 417kts
30-May-20 22:12 43.211599 -114.341664 113 34954ft 418kts
30-May-20 22:13 43.181607 -114.187272 113 34952ft 418kts
30-May-20 22:14 43.151544 -114.033727 113 34925ft 417kts
30-May-20 22:15 43.121261 -113.880291 112 34877ft 418kts
30-May-20 22:16 43.090974 -113.728076 112 34871ft 420kts
30-May-20 22:17 43.060081 -113.573831 112 34869ft 422kts
30-May-20 22:18 43.028720 -113.418567 112 34874ft 423kts
30-May-20 22:19 42.997503 -113.265287 112 34881ft 423kts
30-May-20 22:20 42.965755 -113.110397 112 34867ft 424kts
30-May-20 22:21 42.934045 -112.956921 112 34881ft 425kts
30-May-20 22:22 42.901715 -112.801627 112 34919ft 427kts
30-May-20 22:23 42.868430 -112.648391 116 34930ft 426kts
30-May-20 22:24 42.820704 -112.501824 119 34941ft 424kts
30-May-20 22:25 42.772191 -112.355682 119 34934ft 423kts
30-May-20 22:26 42.724112 -112.211642 119 34922ft 422kts
30-May-20 22:27 42.675645 -112.067191 119 34930ft 421kts
30-May-20 22:28 42.626814 -111.922497 119 35025ft 422kts
30-May-20 22:29 42.577466 -111.777054 119 35100ft 425kts
30-May-20 22:30 42.527953 -111.631795 119 35122ft 425kts
30-May-20 22:31 42.478596 -111.487790 119 35118ft 426kts
30-May-20 22:32 42.428546 -111.342547 119 35111ft 428kts
30-May-20 22:33 42.377782 -111.196004 120 35108ft 430kts
30-May-20 22:34 42.326875 -111.049823 120 35153ft 432kts
30-May-20 22:35 42.275300 -110.902509 120 35275ft 436kts
30-May-20 22:36 42.223602 -110.755617 120 35301ft 439kts
30-May-20 22:37 42.170687 -110.606054 120 35299ft 442kts
30-May-20 22:39 42.117353 -110.456109 120 35303ft 445kts
30-May-20 22:40 42.063627 -110.305864 121 35301ft 447kts
30-May-20 22:41 42.009397 -110.155012 121 35278ft 448kts
30-May-20 22:42 41.955427 -110.005689 121 35247ft 448kts
30-May-20 22:43 41.900742 -109.855185 121 35243ft 448kts
30-May-20 22:44 41.850178 -109.716737 121 35250ft 449kts
30-May-20 22:45 41.795075 -109.566613 121 35252ft 448kts
30-May-20 22:46 41.739871 -109.417003 121 35242ft 447kts
30-May-20 22:47 41.685963 -109.271662 121 35235ft 445kts
30-May-20 22:48 41.630928 -109.124036 121 35225ft 444kts
30-May-20 22:49 41.575847 -108.975968 120 35220ft 445kts
30-May-20 22:50 41.522062 -108.826402 120 35234ft 445kts
30-May-20 22:51 41.468166 -108.677770 120 35241ft 445kts
30-May-20 22:52 41.414557 -108.530779 120 35239ft 445kts
30-May-20 22:53 41.360249 -108.382594 120 35237ft 445kts
30-May-20 22:54 41.306174 -108.235840 120 35239ft 445kts
30-May-20 22:54 41.260465 -108.112346 120 35244ft 446kts
30-May-20 22:56 41.196504 -107.940457 120 35243ft 447kts
30-May-20 22:57 41.141564 -107.793628 120 35244ft 449kts
30-May-20 22:58 41.085941 -107.645695 120 35263ft 451kts
30-May-20 22:59 41.029808 -107.497171 119 35266ft 451kts
30-May-20 22:59 40.982812 -107.373400 119 35258ft 452kts
30-May-20 23:01 40.916593 -107.199895 120 35252ft 452kts
30-May-20 23:01 40.870376 -107.079413 120 35247ft 452kts
30-May-20 23:02 40.813179 -106.930969 120 35276ft 453kts
30-May-20 23:03 40.755959 -106.783222 120 35317ft 453kts
30-May-20 23:04 40.698687 -106.636045 120 35324ft 452kts
30-May-20 23:06 40.632015 -106.465601 120 35215ft 428kts
30-May-20 23:06 40.588496 -106.354812 120 34484ft 398kts
30-May-20 23:07 40.540991 -106.234465 121 33591ft 367kts
30-May-20 23:08 40.493892 -106.115795 120 31430ft 375kts
30-May-20 23:09 40.445645 -105.990096 110 28525ft 399kts
30-May-20 23:10 40.421521 -105.844229 103 25424ft 418kts
30-May-20 23:11 40.398419 -105.697553 104 23319ft 403kts
30-May-20 23:12 40.376807 -105.561411 104 22472ft 358kts
30-May-20 23:13 40.356308 -105.441551 117 21770ft 316kts
30-May-20 23:14 40.304073 -105.354065 132 20345ft 301kts
30-May-20 23:15 40.251313 -105.271266 132 18929ft 293kts
30-May-20 23:16 40.200342 -105.191487 132 17558ft 284kts
30-May-20 23:17 40.151762 -105.115510 132 16795ft 255kts
30-May-20 23:18 40.108440 -105.047923 132 16083ft 232kts
30-May-20 23:19 40.067215 -104.983814 132 14975ft 229kts
30-May-20 23:20 40.025982 -104.919824 131 14141ft 241kts
30-May-20 23:21 39.976617 -104.843338 131 13164ft 287kts
30-May-20 23:22 39.908771 -104.805859 180 11969ft 278kts
30-May-20 23:23 39.833032 -104.807845 180 11156ft 255kts
30-May-20 23:24 39.767948 -104.809506 180 10948ft 221kts
30-May-20 23:25 39.706358 -104.811119 180 10697ft 223kts
30-May-20 23:26 39.644921 -104.812746 180 10453ft 223kts
30-May-20 23:27 39.590685 -104.792741 111 10022ft 206kts
30-May-20 23:28 39.607087 -104.722952 65 9077ft 208kts
30-May-20 23:29 39.631443 -104.655238 47 9045ft 208kts
30-May-20 23:30 39.685945 -104.643526 359 8210ft 200kts
30-May-20 23:31 39.733123 -104.642958 359 7245ft 160kts
30-May-20 23:32 39.774520 -104.642146 358 6617ft 145kts
30-May-20 23:33 39.814308 -104.641820 356 5717ft 143kts
30-May-20 23:34 39.846304 -104.641569 0 5329ft 48kts
30-May-20 23:35 39.856177 -104.643584 349 5329ft 25kts
30-May-20 23:36 39.856606 -104.655765 269 5329ft 61kts
30-May-20 23:37 39.855698 -104.671543 197 5329ft 24kts
30-May-20 23:38 39.854511 -104.671800 213 5329ft 0kts
30-May-20 23:39 39.854511 -104.671800 213 5329ft 0kts

Navigation Log

Ident Type
Flight plan parsing failed, navigation log unavailable